Ellis, Wisconsin
Current Conditions -  °F | °C
As of 5:15 AM on Saturday 22 Nov 2014 (Local Time) from KSTE Reporting Station
Overcast Overcast  
Wind Chill: 22°   Ceiling: 1100
Heat Index: 30°   Visibility: 7mi
Dew Point: 26°   Wind: 9mph
Humidity: 85%   Direction: 210°SSW
Pressure: 29.87"   Gusts: NA
Location:  44.5531°N, 89.5186°W
Report Text: KSTE 221115Z AUTO 21008KT 7SM OVC011 M01/M03 A2987 RMK AO2 T10101032
Loading
Personal Weather Stations






























Interactive Weather Map New forecast layout! Learn more

10-Day Weather Forecast

Advertisements
Track Severe Weather on mobile